createdAt,value
2023-04-23T00:00:24.463Z,9.10
2023-04-23T00:03:27.771Z,9.10
2023-04-23T00:06:30.799Z,9.02
2023-04-23T00:09:33.022Z,9.03
2023-04-23T00:12:35.776Z,9.05
2023-04-23T00:15:38.512Z,9.03
2023-04-23T00:18:40.429Z,9.01
2023-04-23T00:21:42.832Z,8.97
2023-04-23T00:24:44.963Z,8.93
2023-04-23T00:27:47.921Z,8.99
2023-04-23T00:30:49.852Z,9.04
2023-04-23T00:33:52.043Z,9.08
2023-04-23T00:36:53.978Z,9.09
2023-04-23T00:39:56.059Z,9.04
2023-04-23T00:42:58.423Z,9.10
2023-04-23T00:46:00.639Z,9.13
2023-04-23T00:49:03.228Z,9.06
2023-04-23T00:52:06.069Z,9.06
2023-04-23T00:55:09.075Z,9.07
2023-04-23T00:58:11.096Z,9.00
2023-04-23T01:01:13.998Z,9.04
2023-04-23T01:04:17.917Z,9.09
2023-04-23T01:07:21.364Z,8.98
2023-04-23T01:10:23.657Z,9.08
2023-04-23T01:13:29.893Z,9.11
2023-04-23T01:16:31.942Z,9.11
2023-04-23T01:19:33.878Z,9.10
2023-04-23T01:22:37.823Z,9.13
2023-04-23T01:25:40.009Z,9.14
2023-04-23T01:28:43.669Z,9.18
2023-04-23T01:31:47.009Z,9.05
2023-04-23T01:34:49.341Z,9.22
2023-04-23T01:37:52.683Z,9.15
2023-04-23T01:40:54.653Z,9.16
2023-04-23T01:43:59.898Z,9.13
2023-04-23T01:47:01.921Z,9.11
2023-04-23T01:50:05.276Z,9.07
2023-04-23T01:53:07.320Z,9.04
2023-04-23T01:56:10.695Z,9.06
2023-04-23T01:59:12.664Z,9.06
2023-04-23T02:02:15.298Z,9.05
2023-04-23T02:05:19.110Z,9.03
2023-04-23T02:08:21.421Z,9.02
2023-04-23T02:11:24.166Z,9.02
2023-04-23T02:14:26.171Z,9.01
2023-04-23T02:17:29.303Z,8.94
2023-04-23T02:20:31.417Z,8.99
2023-04-23T02:23:33.507Z,9.02
2023-04-23T02:26:35.347Z,9.00
2023-04-23T02:29:38.107Z,8.87
2023-04-23T02:32:41.789Z,8.83
2023-04-23T02:35:43.700Z,8.79
2023-04-23T02:38:47.613Z,8.67
2023-04-23T02:41:49.520Z,8.61
2023-04-23T02:44:51.628Z,8.54
2023-04-23T02:47:53.621Z,8.50
2023-04-23T02:50:55.631Z,8.40
2023-04-23T02:53:58.126Z,8.37
2023-04-23T02:57:00.262Z,8.33
2023-04-23T03:00:04.283Z,8.18
2023-04-23T03:03:06.464Z,8.18
2023-04-23T03:06:08.601Z,7.99
2023-04-23T03:09:10.891Z,8.05
2023-04-23T03:12:12.912Z,7.94
2023-04-23T03:15:14.847Z,7.94
2023-04-23T03:18:16.766Z,7.87
2023-04-23T03:21:18.589Z,7.91
2023-04-23T03:24:20.669Z,7.88
2023-04-23T03:27:22.493Z,7.99
2023-04-23T03:30:24.812Z,7.85
2023-04-23T03:33:26.860Z,7.83
2023-04-23T03:36:29.290Z,7.92
2023-04-23T03:39:31.201Z,7.84
2023-04-23T03:42:34.235Z,7.86
2023-04-23T03:45:36.236Z,7.88
2023-04-23T03:48:38.098Z,7.95
2023-04-23T03:51:40.132Z,7.99
2023-04-23T03:54:42.285Z,7.85
2023-04-23T03:57:44.298Z,7.84
2023-04-23T04:00:47.352Z,7.94
2023-04-23T04:03:49.755Z,8.00
2023-04-23T04:06:51.912Z,7.99
2023-04-23T04:09:53.831Z,8.03
2023-04-23T04:12:56.234Z,8.10
2023-04-23T04:15:59.642Z,8.03
2023-04-23T04:19:01.866Z,8.13
2023-04-23T04:22:03.873Z,8.21
2023-04-23T04:25:07.006Z,8.23
2023-04-23T04:28:11.756Z,8.20
2023-04-23T04:31:16.038Z,8.29
2023-04-23T04:34:18.384Z,8.31
2023-04-23T04:37:21.410Z,8.39
2023-04-23T04:40:23.355Z,8.43
2023-04-23T04:43:25.249Z,8.44
2023-04-23T04:46:29.334Z,8.76
2023-04-23T04:49:31.366Z,9.59
2023-04-23T04:52:33.373Z,10.54
2023-04-23T04:55:35.234Z,11.47
2023-04-23T04:58:37.316Z,12.31
2023-04-23T05:01:39.316Z,12.88
2023-04-23T05:04:41.489Z,13.59
2023-04-23T05:07:43.685Z,13.89
2023-04-23T05:10:45.871Z,14.39
2023-04-23T05:13:48.847Z,14.82
2023-04-23T05:16:51.281Z,14.73
2023-04-23T05:19:53.223Z,13.94
2023-04-23T05:22:55.372Z,13.35
2023-04-23T05:25:58.774Z,13.01
2023-04-23T05:29:00.763Z,12.95
2023-04-23T05:32:02.724Z,13.01
2023-04-23T05:35:06.231Z,13.09
2023-04-23T05:38:12.377Z,13.17
2023-04-23T05:41:15.591Z,13.46
2023-04-23T05:44:17.410Z,13.76
2023-04-23T05:47:19.375Z,15.27
2023-04-23T05:50:22.009Z,16.12
2023-04-23T05:53:24.135Z,17.57
2023-04-23T05:56:26.089Z,17.60
2023-04-23T05:59:28.314Z,17.61
2023-04-23T06:02:34.003Z,19.02
2023-04-23T06:05:38.269Z,19.24
2023-04-23T06:08:40.679Z,19.03
2023-04-23T06:11:42.768Z,17.60
2023-04-23T06:14:44.774Z,17.73
2023-04-23T06:17:49.383Z,17.59
2023-04-23T06:20:51.672Z,18.20
2023-04-23T06:23:54.640Z,19.14
2023-04-23T06:26:57.863Z,19.82
2023-04-23T06:30:01.911Z,20.64
2023-04-23T06:33:05.137Z,20.53
2023-04-23T06:36:11.001Z,20.94
2023-04-23T06:39:13.337Z,20.96
2023-04-23T06:42:15.255Z,21.51
2023-04-23T06:45:20.425Z,21.94
2023-04-23T06:48:22.807Z,21.80
2023-04-23T06:51:28.127Z,22.49
2023-04-23T06:54:32.395Z,23.25
2023-04-23T06:57:37.553Z,23.97
2023-04-23T07:00:44.412Z,23.71
2023-04-23T07:03:49.296Z,22.79
2023-04-23T07:07:00.319Z,23.75
2023-04-23T07:10:02.545Z,23.48
2023-04-23T07:13:04.844Z,23.35
2023-04-23T07:16:07.140Z,23.54
2023-04-23T07:19:09.319Z,24.83
2023-04-23T07:22:14.467Z,24.81
2023-04-23T07:25:22.673Z,23.93
2023-04-23T07:28:29.297Z,25.44
2023-04-23T07:31:35.569Z,25.29
2023-04-23T07:34:40.137Z,25.17
2023-04-23T07:37:44.637Z,26.48
2023-04-23T07:40:47.450Z,25.08
2023-04-23T07:43:49.612Z,24.71
2023-04-23T07:46:54.666Z,24.61
2023-04-23T07:50:02.154Z,24.59
2023-04-23T07:53:05.308Z,23.92
2023-04-23T07:56:10.566Z,23.24
2023-04-23T07:59:12.805Z,24.84
2023-04-23T08:02:18.743Z,24.47
2023-04-23T08:05:23.974Z,24.21
2023-04-23T08:08:30.920Z,25.63
2023-04-23T08:11:37.765Z,24.25
2023-04-23T08:14:40.383Z,24.78
2023-04-23T08:17:45.158Z,25.96
2023-04-23T08:20:54.181Z,25.14
2023-04-23T08:23:58.699Z,24.89
2023-04-23T08:27:00.723Z,24.90
2023-04-23T08:30:05.102Z,25.36
2023-04-23T08:33:10.807Z,27.99
2023-04-23T08:36:12.927Z,27.51
2023-04-23T08:39:18.037Z,26.32
2023-04-23T08:42:58.972Z,26.50
2023-04-23T08:46:06.189Z,27.75
2023-04-23T08:49:09.227Z,26.97
2023-04-23T08:52:23.178Z,26.21
2023-04-23T08:55:26.288Z,27.00
2023-04-23T08:58:34.288Z,27.26
2023-04-23T09:01:39.305Z,27.32
2023-04-23T09:04:45.924Z,24.78
2023-04-23T09:07:50.930Z,23.80
2023-04-23T09:10:59.176Z,22.92
2023-04-23T09:14:02.170Z,20.16
2023-04-23T09:17:07.039Z,20.42
2023-04-23T09:20:09.967Z,19.37
2023-04-23T09:23:21.723Z,20.03
2023-04-23T09:26:23.785Z,20.11
2023-04-23T09:29:26.854Z,19.84
2023-04-23T09:32:34.816Z,19.67
2023-04-23T09:35:40.724Z,19.61
2023-04-23T09:38:43.062Z,19.86
2023-04-23T09:41:48.328Z,19.17
2023-04-23T09:45:04.762Z,19.53
2023-04-23T09:48:07.021Z,19.72
2023-04-23T09:51:09.302Z,19.41
2023-04-23T09:54:18.579Z,19.90
2023-04-23T09:57:20.593Z,19.68
2023-04-23T10:00:25.852Z,19.48
2023-04-23T10:03:30.933Z,19.97
2023-04-23T10:06:44.292Z,19.62
2023-04-23T10:09:51.808Z,19.19
2023-04-23T10:12:57.339Z,19.44
2023-04-23T10:16:13.894Z,19.69
2023-04-23T10:19:19.703Z,19.57
2023-04-23T10:22:22.917Z,19.38
2023-04-23T10:25:25.780Z,19.07
2023-04-23T10:28:33.688Z,19.22
2023-04-23T10:31:38.806Z,18.52
2023-04-23T10:34:42.159Z,18.82
2023-04-23T10:37:46.456Z,18.53
2023-04-23T10:40:51.058Z,18.46
2023-04-23T10:43:53.904Z,18.10
2023-04-23T10:46:58.470Z,17.85
2023-04-23T10:50:23.115Z,18.11
2023-04-23T10:53:26.388Z,18.40
2023-04-23T10:56:28.613Z,18.37
2023-04-23T10:59:32.215Z,18.38
2023-04-23T11:02:44.955Z,18.13
2023-04-23T11:05:47.031Z,17.93
2023-04-23T11:08:56.850Z,18.08
2023-04-23T11:12:01.525Z,18.34
2023-04-23T11:15:15.173Z,18.26
2023-04-23T11:18:17.263Z,18.31
2023-04-23T11:21:19.347Z,18.34
2023-04-23T11:24:23.051Z,18.14
2023-04-23T11:27:25.529Z,18.52
2023-04-23T11:30:29.956Z,19.17
2023-04-23T11:33:32.142Z,19.10
2023-04-23T11:36:34.713Z,18.58
2023-04-23T11:39:44.264Z,18.47
2023-04-23T11:42:51.357Z,18.33
2023-04-23T11:45:55.877Z,18.70
2023-04-23T11:49:00.130Z,18.58
2023-04-23T11:52:02.233Z,18.30
2023-04-23T11:55:06.587Z,18.24
2023-04-23T11:58:08.536Z,18.40
2023-04-23T12:01:13.472Z,18.43
2023-04-23T12:04:27.080Z,18.25
2023-04-23T12:07:32.927Z,18.59
2023-04-23T12:10:50.123Z,18.66
2023-04-23T12:13:53.990Z,18.54
2023-04-23T12:16:57.320Z,18.98
2023-04-23T12:19:59.272Z,19.80
2023-04-23T12:23:05.488Z,19.59
2023-04-23T12:26:15.692Z,19.89
2023-04-23T12:29:18.312Z,19.72
2023-04-23T12:32:27.052Z,19.72
2023-04-23T12:35:58.480Z,19.73
2023-04-23T12:39:32.086Z,19.54
2023-04-23T12:42:34.688Z,18.99
2023-04-23T12:45:39.626Z,18.91
2023-04-23T12:48:41.606Z,19.07
2023-04-23T12:51:43.738Z,19.46
2023-04-23T12:54:45.845Z,19.44
2023-04-23T12:57:47.770Z,18.98
2023-04-23T13:00:49.682Z,19.22
2023-04-23T13:03:52.101Z,19.61
2023-04-23T13:06:54.567Z,19.38
2023-04-23T13:09:57.746Z,19.45
2023-04-23T13:12:59.762Z,19.70
2023-04-23T13:16:02.125Z,19.48
2023-04-23T13:19:05.213Z,19.92
2023-04-23T13:22:07.199Z,18.82
2023-04-23T13:25:09.647Z,18.75
2023-04-23T13:28:11.613Z,18.81
2023-04-23T13:31:14.275Z,18.65
2023-04-23T13:34:16.738Z,18.19
2023-04-23T13:37:18.740Z,18.44
2023-04-23T13:40:20.837Z,18.42
2023-04-23T13:43:22.972Z,17.77
2023-04-23T13:46:27.734Z,17.72
2023-04-23T13:49:29.644Z,17.48
2023-04-23T13:52:34.735Z,17.47
2023-04-23T13:55:37.212Z,17.81
2023-04-23T13:58:42.890Z,17.89
2023-04-23T14:01:47.237Z,17.33
2023-04-23T14:05:09.848Z,17.38
2023-04-23T14:08:13.052Z,17.08
2023-04-23T14:11:15.052Z,17.25
2023-04-23T14:14:16.904Z,17.47
2023-04-23T14:17:18.822Z,17.64
2023-04-23T14:20:20.938Z,17.65
2023-04-23T14:23:22.834Z,17.69
2023-04-23T14:26:46.709Z,17.52
2023-04-23T14:29:55.922Z,17.30
2023-04-23T14:32:57.846Z,17.22
2023-04-23T14:35:59.755Z,17.25
2023-04-23T14:39:05.123Z,16.94
2023-04-23T14:42:06.972Z,16.65
2023-04-23T14:45:09.270Z,16.53
2023-04-23T14:48:12.465Z,16.53
2023-04-23T14:51:14.383Z,16.28
2023-04-23T14:54:17.436Z,16.46
2023-04-23T14:57:19.349Z,16.68
2023-04-23T15:00:22.381Z,16.86
2023-04-23T15:03:24.546Z,16.78
2023-04-23T15:06:26.862Z,16.79
2023-04-23T15:09:28.687Z,16.74
2023-04-23T15:12:53.693Z,16.71
2023-04-23T15:16:00.158Z,16.69
2023-04-23T15:19:06.390Z,16.53
2023-04-23T15:22:08.436Z,16.57
2023-04-23T15:25:10.993Z,16.33
2023-04-23T15:28:12.887Z,16.24
2023-04-23T15:31:14.933Z,16.25
2023-04-23T15:34:16.802Z,16.16
2023-04-23T15:37:21.113Z,16.03
2023-04-23T15:40:23.364Z,16.02
2023-04-23T15:43:25.532Z,16.10
2023-04-23T15:46:27.361Z,16.13
2023-04-23T15:49:31.696Z,16.17
2023-04-23T15:52:33.749Z,16.08
2023-04-23T15:55:35.851Z,15.96
2023-04-23T15:58:38.144Z,15.98
2023-04-23T16:01:40.358Z,15.94
2023-04-23T16:04:43.003Z,15.95
2023-04-23T16:07:45.308Z,15.81
2023-04-23T16:10:47.410Z,15.78
2023-04-23T16:13:49.582Z,15.79
2023-04-23T16:16:52.215Z,15.75
2023-04-23T16:19:54.320Z,15.64
2023-04-23T16:22:56.434Z,15.65
2023-04-23T16:25:58.458Z,15.54
2023-04-23T16:32:07.103Z,15.57
2023-04-23T16:35:11.866Z,15.46
2023-04-23T16:38:14.021Z,15.38
2023-04-23T16:41:17.673Z,15.30
2023-04-23T16:44:19.765Z,15.23
2023-04-23T16:47:21.925Z,15.09
2023-04-23T16:50:24.160Z,15.05
2023-04-23T16:53:26.298Z,15.09
2023-04-23T16:56:28.534Z,14.97
2023-04-23T16:59:31.020Z,14.90
2023-04-23T17:02:34.612Z,14.81
2023-04-23T17:05:39.175Z,14.61
2023-04-23T17:08:41.487Z,14.41
2023-04-23T17:11:43.550Z,14.28
2023-04-23T17:14:45.549Z,14.13
2023-04-23T17:17:47.536Z,14.01
2023-04-23T17:20:50.642Z,13.82
2023-04-23T17:23:53.181Z,13.64
2023-04-23T17:26:55.086Z,13.58
2023-04-23T17:29:58.932Z,13.46
2023-04-23T17:33:01.192Z,13.29
2023-04-23T17:36:04.560Z,13.08
2023-04-23T17:39:07.660Z,12.89
2023-04-23T17:42:10.461Z,12.74
2023-04-23T17:45:12.955Z,12.66
2023-04-23T17:48:15.666Z,12.49
2023-04-23T17:51:18.864Z,12.44
2023-04-23T17:54:24.754Z,12.31
2023-04-23T17:57:27.020Z,12.18
2023-04-23T18:00:29.239Z,12.03
2023-04-23T18:03:32.302Z,11.92
2023-04-23T18:06:36.056Z,11.74
2023-04-23T18:09:38.573Z,11.65
2023-04-23T18:12:40.906Z,11.53
2023-04-23T18:15:49.800Z,11.40
2023-04-23T18:18:52.132Z,11.28
2023-04-23T18:21:57.560Z,11.20
2023-04-23T18:24:59.777Z,11.02
2023-04-23T18:28:02.337Z,10.95
2023-04-23T18:31:04.783Z,10.86
2023-04-23T18:34:10.739Z,10.75
2023-04-23T18:37:33.221Z,10.60
2023-04-23T18:40:48.752Z,10.43
2023-04-23T18:43:51.561Z,10.48
2023-04-23T18:46:53.858Z,10.34
2023-04-23T18:50:03.645Z,10.31
2023-04-23T18:53:06.627Z,10.23
2023-04-23T18:56:11.058Z,10.14
2023-04-23T18:59:15.751Z,9.97
2023-04-23T19:02:28.221Z,9.88
2023-04-23T19:05:37.293Z,9.79
2023-04-23T19:08:42.946Z,9.85
2023-04-23T19:11:45.369Z,9.79
2023-04-23T19:14:50.538Z,9.66
2023-04-23T19:17:53.064Z,9.65
2023-04-23T19:20:55.742Z,9.56
2023-04-23T19:23:58.100Z,9.49
2023-04-23T19:27:00.969Z,9.36
2023-04-23T19:30:05.220Z,9.27
2023-04-23T19:33:07.608Z,9.15
2023-04-23T19:36:10.413Z,9.04
2023-04-23T19:39:12.762Z,9.01
2023-04-23T19:42:15.257Z,9.00
2023-04-23T19:45:18.477Z,8.98
2023-04-23T19:48:20.807Z,9.00
2023-04-23T19:51:27.994Z,9.04
2023-04-23T19:54:30.683Z,9.02
2023-04-23T19:57:33.071Z,8.76
2023-04-23T20:00:39.110Z,8.71
2023-04-23T20:03:43.819Z,8.64
2023-04-23T20:06:46.096Z,8.65
2023-04-23T20:09:48.227Z,8.60
2023-04-23T20:12:50.362Z,8.46
2023-04-23T20:15:55.718Z,8.35
2023-04-23T20:18:57.963Z,8.30
2023-04-23T20:22:07.716Z,8.34
2023-04-23T20:25:10.209Z,8.39
2023-04-23T20:28:12.252Z,8.43
2023-04-23T20:31:15.016Z,8.32
2023-04-23T20:34:17.300Z,8.21
2023-04-23T20:37:21.677Z,8.28
2023-04-23T20:40:25.023Z,8.17
2023-04-23T20:43:27.003Z,8.10
2023-04-23T20:46:32.512Z,8.05
2023-04-23T20:49:34.821Z,7.99
2023-04-23T20:52:37.086Z,8.07
2023-04-23T20:55:39.140Z,8.01
2023-04-23T20:58:41.909Z,7.96
2023-04-23T21:01:43.917Z,7.85
2023-04-23T21:04:45.863Z,7.84
2023-04-23T21:07:50.760Z,7.81
2023-04-23T21:10:52.893Z,7.84
2023-04-23T21:14:00.170Z,7.85
2023-04-23T21:17:02.780Z,7.84
2023-04-23T21:20:05.773Z,7.77
2023-04-23T21:23:10.062Z,7.81
2023-04-23T21:26:12.341Z,7.76
2023-04-23T21:29:14.419Z,7.71
2023-04-23T21:32:16.687Z,7.73
2023-04-23T21:35:19.588Z,7.74
2023-04-23T21:38:21.654Z,7.75
2023-04-23T21:41:24.577Z,7.75
2023-04-23T21:44:28.579Z,7.67
2023-04-23T21:47:30.469Z,7.71
2023-04-23T21:50:36.203Z,7.71
2023-04-23T21:53:41.284Z,7.69
2023-04-23T21:56:50.752Z,7.67
2023-04-23T21:59:52.718Z,7.59
2023-04-23T22:03:00.809Z,7.56
2023-04-23T22:06:04.377Z,7.52
2023-04-23T22:09:07.410Z,7.49
2023-04-23T22:12:10.112Z,7.47
2023-04-23T22:15:19.516Z,7.51
2023-04-23T22:18:21.580Z,7.43
2023-04-23T22:21:23.459Z,7.44
2023-04-23T22:24:25.347Z,7.40
2023-04-23T22:27:27.233Z,7.42
2023-04-23T22:30:30.722Z,7.43
2023-04-23T22:33:32.706Z,7.41
2023-04-23T22:36:34.607Z,7.43
2023-04-23T22:39:36.677Z,7.45
2023-04-23T22:42:38.656Z,7.40
2023-04-23T22:45:40.728Z,7.37
2023-04-23T22:48:45.006Z,7.33
2023-04-23T22:51:47.433Z,7.25
2023-04-23T22:54:49.979Z,7.26
2023-04-23T22:57:52.016Z,7.28
2023-04-23T23:00:55.105Z,7.26
2023-04-23T23:03:57.285Z,7.32
2023-04-23T23:06:59.174Z,7.29
2023-04-23T23:10:01.110Z,7.26
2023-04-23T23:13:03.053Z,7.24
2023-04-23T23:16:05.933Z,7.10
2023-04-23T23:19:08.330Z,7.07
2023-04-23T23:22:10.307Z,7.01
2023-04-23T23:25:12.772Z,7.04
2023-04-23T23:28:14.650Z,7.01
2023-04-23T23:31:16.992Z,7.02
2023-04-23T23:34:19.339Z,7.06
2023-04-23T23:37:21.560Z,7.06
2023-04-23T23:40:23.649Z,7.10
2023-04-23T23:43:25.794Z,7.04
2023-04-23T23:46:28.141Z,7.05
2023-04-23T23:49:30.277Z,7.02
2023-04-23T23:52:32.373Z,6.91
2023-04-23T23:55:34.277Z,6.95
2023-04-23T23:58:36.585Z,6.89
